sensor_id;sensor_type;location;lat;lon;timestamp;temperature;humidity
6357;DHT22;3211;53.452;-2.264;2023-12-07T00:01:45;5.50;1.00
6357;DHT22;3211;53.452;-2.264;2023-12-07T00:04:32;5.50;99.90
6357;DHT22;3211;53.452;-2.264;2023-12-07T00:07:19;5.50;99.90
6357;DHT22;3211;53.452;-2.264;2023-12-07T00:10:07;5.60;99.90
6357;DHT22;3211;53.452;-2.264;2023-12-07T00:12:55;5.60;99.90
6357;DHT22;3211;53.452;-2.264;2023-12-07T00:15:43;5.60;99.90
6357;DHT22;3211;53.452;-2.264;2023-12-07T00:18:30;5.60;99.90
6357;DHT22;3211;53.452;-2.264;2023-12-07T00:21:18;5.70;99.90
6357;DHT22;3211;53.452;-2.264;2023-12-07T00:24:05;5.70;99.90
6357;DHT22;3211;53.452;-2.264;2023-12-07T00:26:53;5.60;99.90
6357;DHT22;3211;53.452;-2.264;2023-12-07T00:29:40;5.70;99.90
6357;DHT22;3211;53.452;-2.264;2023-12-07T00:32:29;5.60;99.90
6357;DHT22;3211;53.452;-2.264;2023-12-07T00:35:16;5.70;99.90
6357;DHT22;3211;53.452;-2.264;2023-12-07T00:38:07;5.60;1.00
6357;DHT22;3211;53.452;-2.264;2023-12-07T00:40:55;5.70;1.00
6357;DHT22;3211;53.452;-2.264;2023-12-07T00:43:42;5.70;99.90
6357;DHT22;3211;53.452;-2.264;2023-12-07T00:46:29;5.70;99.90
6357;DHT22;3211;53.452;-2.264;2023-12-07T00:49:18;5.80;99.90
6357;DHT22;3211;53.452;-2.264;2023-12-07T00:52:05;5.70;99.90
6357;DHT22;3211;53.452;-2.264;2023-12-07T00:54:53;5.80;99.90
6357;DHT22;3211;53.452;-2.264;2023-12-07T00:57:40;5.80;99.90
6357;DHT22;3211;53.452;-2.264;2023-12-07T01:00:27;5.80;99.90
6357;DHT22;3211;53.452;-2.264;2023-12-07T01:03:15;5.80;99.90
6357;DHT22;3211;53.452;-2.264;2023-12-07T01:06:04;5.80;99.90
6357;DHT22;3211;53.452;-2.264;2023-12-07T01:08:52;5.80;99.90
6357;DHT22;3211;53.452;-2.264;2023-12-07T01:11:39;5.80;99.90
6357;DHT22;3211;53.452;-2.264;2023-12-07T01:14:26;5.90;99.90
6357;DHT22;3211;53.452;-2.264;2023-12-07T01:17:13;5.90;99.90
6357;DHT22;3211;53.452;-2.264;2023-12-07T01:20:01;6.00;99.90
6357;DHT22;3211;53.452;-2.264;2023-12-07T01:22:51;6.00;99.90
6357;DHT22;3211;53.452;-2.264;2023-12-07T01:25:38;6.00;99.90
6357;DHT22;3211;53.452;-2.264;2023-12-07T01:28:25;6.10;99.90
6357;DHT22;3211;53.452;-2.264;2023-12-07T01:31:12;6.10;99.90
6357;DHT22;3211;53.452;-2.264;2023-12-07T01:34:00;6.10;99.90
6357;DHT22;3211;53.452;-2.264;2023-12-07T01:36:47;6.20;99.90
6357;DHT22;3211;53.452;-2.264;2023-12-07T01:39:36;6.20;99.90
6357;DHT22;3211;53.452;-2.264;2023-12-07T01:42:23;6.20;78.90
6357;DHT22;3211;53.452;-2.264;2023-12-07T01:45:10;6.30;35.60
6357;DHT22;3211;53.452;-2.264;2023-12-07T01:47:58;6.30;43.60
6357;DHT22;3211;53.452;-2.264;2023-12-07T01:50:46;6.30;59.60
6357;DHT22;3211;53.452;-2.264;2023-12-07T01:53:33;6.30;40.10
6357;DHT22;3211;53.452;-2.264;2023-12-07T01:56:23;6.30;46.90
6357;DHT22;3211;53.452;-2.264;2023-12-07T01:59:12;6.30;6.30
6357;DHT22;3211;53.452;-2.264;2023-12-07T02:01:59;6.40;13.90
6357;DHT22;3211;53.452;-2.264;2023-12-07T02:04:46;6.30;36.00
6357;DHT22;3211;53.452;-2.264;2023-12-07T02:07:34;6.30;41.00
6357;DHT22;3211;53.452;-2.264;2023-12-07T02:10:21;6.30;92.80
6357;DHT22;3211;53.452;-2.264;2023-12-07T02:13:10;6.30;82.40
6357;DHT22;3211;53.452;-2.264;2023-12-07T02:15:58;6.30;99.90
6357;DHT22;3211;53.452;-2.264;2023-12-07T02:18:52;6.30;99.90
6357;DHT22;3211;53.452;-2.264;2023-12-07T02:21:44;6.30;99.90
6357;DHT22;3211;53.452;-2.264;2023-12-07T02:24:37;6.30;99.90
6357;DHT22;3211;53.452;-2.264;2023-12-07T02:27:35;6.30;99.90
6357;DHT22;3211;53.452;-2.264;2023-12-07T02:30:22;6.30;99.90
6357;DHT22;3211;53.452;-2.264;2023-12-07T02:33:10;6.30;99.90
6357;DHT22;3211;53.452;-2.264;2023-12-07T02:35:57;6.30;99.90
6357;DHT22;3211;53.452;-2.264;2023-12-07T02:38:46;6.30;99.90
6357;DHT22;3211;53.452;-2.264;2023-12-07T02:41:34;6.30;99.90
6357;DHT22;3211;53.452;-2.264;2023-12-07T02:44:23;6.30;99.90
6357;DHT22;3211;53.452;-2.264;2023-12-07T02:47:11;6.20;1.00
6357;DHT22;3211;53.452;-2.264;2023-12-07T02:49:58;6.10;1.00
6357;DHT22;3211;53.452;-2.264;2023-12-07T02:52:45;6.10;1.00
6357;DHT22;3211;53.452;-2.264;2023-12-07T02:55:33;6.00;13.00
6357;DHT22;3211;53.452;-2.264;2023-12-07T02:58:20;6.00;49.20
6357;DHT22;3211;53.452;-2.264;2023-12-07T03:01:09;6.00;76.80
6357;DHT22;3211;53.452;-2.264;2023-12-07T03:03:56;5.90;99.90
6357;DHT22;3211;53.452;-2.264;2023-12-07T03:06:43;6.00;99.90
6357;DHT22;3211;53.452;-2.264;2023-12-07T03:09:30;6.00;99.90
6357;DHT22;3211;53.452;-2.264;2023-12-07T03:12:18;6.00;99.90
6357;DHT22;3211;53.452;-2.264;2023-12-07T03:15:06;5.90;99.90
6357;DHT22;3211;53.452;-2.264;2023-12-07T03:17:56;6.00;99.90
6357;DHT22;3211;53.452;-2.264;2023-12-07T03:20:44;6.00;99.90
6357;DHT22;3211;53.452;-2.264;2023-12-07T03:23:31;6.10;99.90
6357;DHT22;3211;53.452;-2.264;2023-12-07T03:26:19;6.00;99.90
6357;DHT22;3211;53.452;-2.264;2023-12-07T03:29:06;6.10;99.90
6357;DHT22;3211;53.452;-2.264;2023-12-07T03:31:53;6.00;97.20
6357;DHT22;3211;53.452;-2.264;2023-12-07T03:34:42;6.00;99.10
6357;DHT22;3211;53.452;-2.264;2023-12-07T03:37:29;6.10;82.80
6357;DHT22;3211;53.452;-2.264;2023-12-07T03:40:17;6.00;53.20
6357;DHT22;3211;53.452;-2.264;2023-12-07T03:43:04;6.00;34.70
6357;DHT22;3211;53.452;-2.264;2023-12-07T03:45:51;6.10;18.30
6357;DHT22;3211;53.452;-2.264;2023-12-07T03:48:39;6.10;1.00
6357;DHT22;3211;53.452;-2.264;2023-12-07T03:51:28;6.20;1.00
6357;DHT22;3211;53.452;-2.264;2023-12-07T03:54:15;6.20;1.00
6357;DHT22;3211;53.452;-2.264;2023-12-07T03:57:03;6.20;1.00
6357;DHT22;3211;53.452;-2.264;2023-12-07T03:59:50;6.20;1.00
6357;DHT22;3211;53.452;-2.264;2023-12-07T04:02:39;6.20;1.00
6357;DHT22;3211;53.452;-2.264;2023-12-07T04:05:26;6.20;1.00
6357;DHT22;3211;53.452;-2.264;2023-12-07T04:08:15;6.20;1.00
6357;DHT22;3211;53.452;-2.264;2023-12-07T04:11:02;6.20;1.00
6357;DHT22;3211;53.452;-2.264;2023-12-07T04:13:49;6.20;1.00
6357;DHT22;3211;53.452;-2.264;2023-12-07T04:16:37;6.20;1.00
6357;DHT22;3211;53.452;-2.264;2023-12-07T04:19:24;6.20;1.00
6357;DHT22;3211;53.452;-2.264;2023-12-07T04:22:11;6.20;1.00
6357;DHT22;3211;53.452;-2.264;2023-12-07T04:25:00;6.20;1.00
6357;DHT22;3211;53.452;-2.264;2023-12-07T04:27:47;6.30;1.00
6357;DHT22;3211;53.452;-2.264;2023-12-07T04:30:34;6.30;1.00
6357;DHT22;3211;53.452;-2.264;2023-12-07T04:33:21;6.30;1.00
6357;DHT22;3211;53.452;-2.264;2023-12-07T04:36:09;6.30;1.00
6357;DHT22;3211;53.452;-2.264;2023-12-07T04:38:56;6.30;1.00
6357;DHT22;3211;53.452;-2.264;2023-12-07T04:41:45;6.30;1.00
6357;DHT22;3211;53.452;-2.264;2023-12-07T04:44:32;6.30;1.00
6357;DHT22;3211;53.452;-2.264;2023-12-07T04:47:19;6.30;1.00
6357;DHT22;3211;53.452;-2.264;2023-12-07T04:50:08;6.30;1.00
6357;DHT22;3211;53.452;-2.264;2023-12-07T04:52:55;6.30;1.00
6357;DHT22;3211;53.452;-2.264;2023-12-07T04:55:43;6.40;1.00
6357;DHT22;3211;53.452;-2.264;2023-12-07T04:58:34;6.30;1.00
6357;DHT22;3211;53.452;-2.264;2023-12-07T05:01:21;6.30;1.00
6357;DHT22;3211;53.452;-2.264;2023-12-07T05:04:09;6.30;1.00
6357;DHT22;3211;53.452;-2.264;2023-12-07T05:06:56;6.30;23.10
6357;DHT22;3211;53.452;-2.264;2023-12-07T05:09:43;6.30;64.00
6357;DHT22;3211;53.452;-2.264;2023-12-07T05:12:31;6.30;89.30
6357;DHT22;3211;53.452;-2.264;2023-12-07T05:15:20;6.20;99.90
6357;DHT22;3211;53.452;-2.264;2023-12-07T05:18:07;6.20;99.90
6357;DHT22;3211;53.452;-2.264;2023-12-07T05:20:54;6.20;99.90
6357;DHT22;3211;53.452;-2.264;2023-12-07T05:23:42;6.10;99.90
6357;DHT22;3211;53.452;-2.264;2023-12-07T05:26:29;6.10;99.90
6357;DHT22;3211;53.452;-2.264;2023-12-07T05:29:18;6.20;99.90
6357;DHT22;3211;53.452;-2.264;2023-12-07T05:32:08;6.20;99.90
6357;DHT22;3211;53.452;-2.264;2023-12-07T05:34:55;6.10;99.90
6357;DHT22;3211;53.452;-2.264;2023-12-07T05:37:42;6.10;99.90
6357;DHT22;3211;53.452;-2.264;2023-12-07T05:40:29;6.20;99.90
6357;DHT22;3211;53.452;-2.264;2023-12-07T05:43:17;6.20;99.90
6357;DHT22;3211;53.452;-2.264;2023-12-07T05:46:04;6.20;99.90
6357;DHT22;3211;53.452;-2.264;2023-12-07T05:48:53;6.30;99.90
6357;DHT22;3211;53.452;-2.264;2023-12-07T05:51:40;6.30;99.90
6357;DHT22;3211;53.452;-2.264;2023-12-07T05:54:27;6.30;99.90
6357;DHT22;3211;53.452;-2.264;2023-12-07T05:57:15;6.30;99.90
6357;DHT22;3211;53.452;-2.264;2023-12-07T06:00:02;6.30;99.90
6357;DHT22;3211;53.452;-2.264;2023-12-07T06:02:51;6.30;99.90
6357;DHT22;3211;53.452;-2.264;2023-12-07T06:05:40;6.30;99.90
6357;DHT22;3211;53.452;-2.264;2023-12-07T06:08:27;6.30;99.90
6357;DHT22;3211;53.452;-2.264;2023-12-07T06:11:14;6.30;99.90
6357;DHT22;3211;53.452;-2.264;2023-12-07T06:14:02;6.30;99.90
6357;DHT22;3211;53.452;-2.264;2023-12-07T06:16:52;6.30;99.90
6357;DHT22;3211;53.452;-2.264;2023-12-07T06:19:39;6.40;99.90
6357;DHT22;3211;53.452;-2.264;2023-12-07T06:22:27;6.40;99.90
6357;DHT22;3211;53.452;-2.264;2023-12-07T06:25:15;6.40;99.90
6357;DHT22;3211;53.452;-2.264;2023-12-07T06:28:02;6.40;99.90
6357;DHT22;3211;53.452;-2.264;2023-12-07T06:30:50;6.40;99.90
6357;DHT22;3211;53.452;-2.264;2023-12-07T06:33:37;6.50;99.90
6357;DHT22;3211;53.452;-2.264;2023-12-07T06:36:24;6.50;99.90
6357;DHT22;3211;53.452;-2.264;2023-12-07T06:39:14;6.50;99.90
6357;DHT22;3211;53.452;-2.264;2023-12-07T06:42:01;6.50;99.00
6357;DHT22;3211;53.452;-2.264;2023-12-07T06:44:48;6.50;66.10
6357;DHT22;3211;53.452;-2.264;2023-12-07T06:47:36;6.60;87.30
6357;DHT22;3211;53.452;-2.264;2023-12-07T06:50:23;6.50;83.30
6357;DHT22;3211;53.452;-2.264;2023-12-07T06:53:10;6.60;81.00
6357;DHT22;3211;53.452;-2.264;2023-12-07T06:55:59;6.50;55.60
6357;DHT22;3211;53.452;-2.264;2023-12-07T06:58:46;6.60;38.50
6357;DHT22;3211;53.452;-2.264;2023-12-07T07:01:34;6.60;30.00
6357;DHT22;3211;53.452;-2.264;2023-12-07T07:04:21;6.50;28.50
6357;DHT22;3211;53.452;-2.264;2023-12-07T07:07:08;6.50;39.00
6357;DHT22;3211;53.452;-2.264;2023-12-07T07:09:55;6.50;36.70
6357;DHT22;3211;53.452;-2.264;2023-12-07T07:12:44;6.60;41.70
6357;DHT22;3211;53.452;-2.264;2023-12-07T07:15:32;6.60;48.40
6357;DHT22;3211;53.452;-2.264;2023-12-07T07:18:19;6.60;58.30
6357;DHT22;3211;53.452;-2.264;2023-12-07T07:21:09;6.50;66.60
6357;DHT22;3211;53.452;-2.264;2023-12-07T07:23:57;6.50;76.40
6357;DHT22;3211;53.452;-2.264;2023-12-07T07:26:44;6.60;68.50
6357;DHT22;3211;53.452;-2.264;2023-12-07T07:29:33;6.60;35.20
6357;DHT22;3211;53.452;-2.264;2023-12-07T07:32:20;6.70;39.00
6357;DHT22;3211;53.452;-2.264;2023-12-07T07:35:08;6.70;10.20
6357;DHT22;3211;53.452;-2.264;2023-12-07T07:37:57;6.80;6.20
6357;DHT22;3211;53.452;-2.264;2023-12-07T07:40:44;6.80;6.30
6357;DHT22;3211;53.452;-2.264;2023-12-07T07:43:33;6.80;10.50
6357;DHT22;3211;53.452;-2.264;2023-12-07T07:46:22;6.80;8.80
6357;DHT22;3211;53.452;-2.264;2023-12-07T07:49:09;6.80;4.30
6357;DHT22;3211;53.452;-2.264;2023-12-07T07:51:57;6.80;25.90
6357;DHT22;3211;53.452;-2.264;2023-12-07T07:54:44;6.90;10.20
6357;DHT22;3211;53.452;-2.264;2023-12-07T07:57:31;6.90;1.00
6357;DHT22;3211;53.452;-2.264;2023-12-07T08:00:19;6.90;1.00
6357;DHT22;3211;53.452;-2.264;2023-12-07T08:03:08;7.00;1.00
6357;DHT22;3211;53.452;-2.264;2023-12-07T08:05:55;7.00;1.00
6357;DHT22;3211;53.452;-2.264;2023-12-07T08:08:42;7.00;1.00
6357;DHT22;3211;53.452;-2.264;2023-12-07T08:11:30;7.00;1.00
6357;DHT22;3211;53.452;-2.264;2023-12-07T08:14:18;7.00;1.00
6357;DHT22;3211;53.452;-2.264;2023-12-07T08:17:05;7.00;1.00
6357;DHT22;3211;53.452;-2.264;2023-12-07T08:19:54;7.00;1.00
6357;DHT22;3211;53.452;-2.264;2023-12-07T08:22:41;7.00;1.00
6357;DHT22;3211;53.452;-2.264;2023-12-07T08:25:28;7.10;1.00
6357;DHT22;3211;53.452;-2.264;2023-12-07T08:28:17;7.10;1.00
6357;DHT22;3211;53.452;-2.264;2023-12-07T08:31:05;7.10;1.00
6357;DHT22;3211;53.452;-2.264;2023-12-07T08:33:53;7.10;1.00
6357;DHT22;3211;53.452;-2.264;2023-12-07T08:36:42;7.10;1.00
6357;DHT22;3211;53.452;-2.264;2023-12-07T08:39:29;7.20;1.00
6357;DHT22;3211;53.452;-2.264;2023-12-07T08:42:16;7.20;1.00
6357;DHT22;3211;53.452;-2.264;2023-12-07T08:45:05;7.20;1.00
6357;DHT22;3211;53.452;-2.264;2023-12-07T08:47:52;7.20;1.00
6357;DHT22;3211;53.452;-2.264;2023-12-07T08:50:39;7.20;1.00
6357;DHT22;3211;53.452;-2.264;2023-12-07T08:53:28;7.20;1.00
6357;DHT22;3211;53.452;-2.264;2023-12-07T08:56:15;7.30;1.00
6357;DHT22;3211;53.452;-2.264;2023-12-07T08:59:03;7.30;1.00
6357;DHT22;3211;53.452;-2.264;2023-12-07T09:01:50;7.40;1.00
6357;DHT22;3211;53.452;-2.264;2023-12-07T09:04:37;7.40;1.00
6357;DHT22;3211;53.452;-2.264;2023-12-07T09:07:25;7.40;1.00
6357;DHT22;3211;53.452;-2.264;2023-12-07T09:10:13;7.50;1.00
6357;DHT22;3211;53.452;-2.264;2023-12-07T09:13:01;7.40;1.00
6357;DHT22;3211;53.452;-2.264;2023-12-07T09:15:48;7.50;1.00
6357;DHT22;3211;53.452;-2.264;2023-12-07T09:18:35;7.50;1.00
6357;DHT22;3211;53.452;-2.264;2023-12-07T09:21:23;7.50;1.00
6357;DHT22;3211;53.452;-2.264;2023-12-07T09:24:10;7.60;1.00
6357;DHT22;3211;53.452;-2.264;2023-12-07T09:26:59;7.70;1.00
6357;DHT22;3211;53.452;-2.264;2023-12-07T09:29:46;7.70;1.00
6357;DHT22;3211;53.452;-2.264;2023-12-07T09:32:34;7.70;1.00
6357;DHT22;3211;53.452;-2.264;2023-12-07T09:35:24;7.70;1.00
6357;DHT22;3211;53.452;-2.264;2023-12-07T09:38:11;7.70;1.00
6357;DHT22;3211;53.452;-2.264;2023-12-07T09:40:58;7.80;1.00
6357;DHT22;3211;53.452;-2.264;2023-12-07T09:43:47;7.80;1.00
6357;DHT22;3211;53.452;-2.264;2023-12-07T09:46:34;7.80;1.00
6357;DHT22;3211;53.452;-2.264;2023-12-07T09:49:21;7.90;1.00
6357;DHT22;3211;53.452;-2.264;2023-12-07T09:52:10;7.80;1.00
6357;DHT22;3211;53.452;-2.264;2023-12-07T09:54:59;7.80;1.00
6357;DHT22;3211;53.452;-2.264;2023-12-07T09:57:48;7.80;1.00
6357;DHT22;3211;53.452;-2.264;2023-12-07T10:00:37;7.80;1.00
6357;DHT22;3211;53.452;-2.264;2023-12-07T10:03:24;7.80;1.00
6357;DHT22;3211;53.452;-2.264;2023-12-07T10:06:11;7.90;1.00
6357;DHT22;3211;53.452;-2.264;2023-12-07T10:09:03;7.90;1.00
6357;DHT22;3211;53.452;-2.264;2023-12-07T10:12:02;7.90;1.00
6357;DHT22;3211;53.452;-2.264;2023-12-07T10:14:49;7.90;1.00
6357;DHT22;3211;53.452;-2.264;2023-12-07T10:17:48;7.90;1.00
6357;DHT22;3211;53.452;-2.264;2023-12-07T10:20:36;7.90;1.00
6357;DHT22;3211;53.452;-2.264;2023-12-07T10:23:23;7.90;1.00
6357;DHT22;3211;53.452;-2.264;2023-12-07T10:26:13;7.90;1.00
6357;DHT22;3211;53.452;-2.264;2023-12-07T10:29:02;7.90;1.00
6357;DHT22;3211;53.452;-2.264;2023-12-07T10:31:49;7.90;1.00
6357;DHT22;3211;53.452;-2.264;2023-12-07T10:34:37;7.90;1.00
6357;DHT22;3211;53.452;-2.264;2023-12-07T10:37:25;7.90;14.70
6357;DHT22;3211;53.452;-2.264;2023-12-07T10:40:12;7.90;3.10
6357;DHT22;3211;53.452;-2.264;2023-12-07T10:43:02;7.90;18.20
6357;DHT22;3211;53.452;-2.264;2023-12-07T10:45:51;7.90;25.50
6357;DHT22;3211;53.452;-2.264;2023-12-07T10:48:40;8.00;30.10
6357;DHT22;3211;53.452;-2.264;2023-12-07T10:51:34;8.00;13.00
6357;DHT22;3211;53.452;-2.264;2023-12-07T10:54:22;8.00;10.80
6357;DHT22;3211;53.452;-2.264;2023-12-07T10:57:11;8.10;1.00
6357;DHT22;3211;53.452;-2.264;2023-12-07T11:00:00;8.10;1.00
6357;DHT22;3211;53.452;-2.264;2023-12-07T11:02:47;8.20;1.00
6357;DHT22;3211;53.452;-2.264;2023-12-07T11:05:35;8.20;1.00
6357;DHT22;3211;53.452;-2.264;2023-12-07T11:08:28;8.30;1.00
6357;DHT22;3211;53.452;-2.264;2023-12-07T11:11:21;8.30;1.00
6357;DHT22;3211;53.452;-2.264;2023-12-07T11:14:12;8.40;1.00
6357;DHT22;3211;53.452;-2.264;2023-12-07T11:17:00;8.40;1.00
6357;DHT22;3211;53.452;-2.264;2023-12-07T11:19:47;8.40;1.00
6357;DHT22;3211;53.452;-2.264;2023-12-07T11:22:35;8.50;99.90
6357;DHT22;3211;53.452;-2.264;2023-12-07T11:25:23;8.50;1.00
6357;DHT22;3211;53.452;-2.264;2023-12-07T11:28:12;8.40;1.00
6357;DHT22;3211;53.452;-2.264;2023-12-07T11:31:00;8.40;1.00
6357;DHT22;3211;53.452;-2.264;2023-12-07T11:33:48;8.50;99.90
6357;DHT22;3211;53.452;-2.264;2023-12-07T11:36:35;8.50;99.90
6357;DHT22;3211;53.452;-2.264;2023-12-07T11:39:24;8.60;99.90
6357;DHT22;3211;53.452;-2.264;2023-12-07T11:42:16;8.50;99.90
6357;DHT22;3211;53.452;-2.264;2023-12-07T11:45:04;8.50;99.90
6357;DHT22;3211;53.452;-2.264;2023-12-07T11:48:06;8.50;1.00
6357;DHT22;3211;53.452;-2.264;2023-12-07T11:50:55;8.50;1.00
6357;DHT22;3211;53.452;-2.264;2023-12-07T11:53:42;8.50;1.00
6357;DHT22;3211;53.452;-2.264;2023-12-07T11:56:30;8.50;1.00
6357;DHT22;3211;53.452;-2.264;2023-12-07T11:59:18;8.40;1.00
6357;DHT22;3211;53.452;-2.264;2023-12-07T12:02:06;8.40;1.00
6357;DHT22;3211;53.452;-2.264;2023-12-07T12:04:53;8.50;1.00
6357;DHT22;3211;53.452;-2.264;2023-12-07T12:07:40;8.40;1.00
6357;DHT22;3211;53.452;-2.264;2023-12-07T12:10:27;8.40;12.40
6357;DHT22;3211;53.452;-2.264;2023-12-07T12:13:15;8.40;61.90
6357;DHT22;3211;53.452;-2.264;2023-12-07T12:16:05;8.30;93.00
6357;DHT22;3211;53.452;-2.264;2023-12-07T12:18:52;8.30;90.10
6357;DHT22;3211;53.452;-2.264;2023-12-07T12:21:40;8.30;92.60
6357;DHT22;3211;53.452;-2.264;2023-12-07T12:24:29;8.30;99.90
6357;DHT22;3211;53.452;-2.264;2023-12-07T12:27:17;8.30;98.50
6357;DHT22;3211;53.452;-2.264;2023-12-07T12:30:05;8.30;91.40
6357;DHT22;3211;53.452;-2.264;2023-12-07T12:32:56;8.30;76.20
6357;DHT22;3211;53.452;-2.264;2023-12-07T12:35:43;8.30;99.50
6357;DHT22;3211;53.452;-2.264;2023-12-07T12:38:30;8.20;99.90
6357;DHT22;3211;53.452;-2.264;2023-12-07T12:41:18;8.20;99.90
6357;DHT22;3211;53.452;-2.264;2023-12-07T12:44:05;8.20;99.90
6357;DHT22;3211;53.452;-2.264;2023-12-07T12:46:53;8.20;99.90
6357;DHT22;3211;53.452;-2.264;2023-12-07T12:49:42;8.20;99.90
6357;DHT22;3211;53.452;-2.264;2023-12-07T12:52:30;8.20;99.90
6357;DHT22;3211;53.452;-2.264;2023-12-07T12:55:17;8.10;99.90
6357;DHT22;3211;53.452;-2.264;2023-12-07T12:58:06;8.20;99.90
6357;DHT22;3211;53.452;-2.264;2023-12-07T13:00:54;8.20;93.70
6357;DHT22;3211;53.452;-2.264;2023-12-07T13:03:42;8.20;79.10
6357;DHT22;3211;53.452;-2.264;2023-12-07T13:06:32;8.20;66.50
6357;DHT22;3211;53.452;-2.264;2023-12-07T13:09:20;8.20;54.30
6357;DHT22;3211;53.452;-2.264;2023-12-07T13:12:07;8.10;48.60
6357;DHT22;3211;53.452;-2.264;2023-12-07T13:14:55;8.20;27.90
6357;DHT22;3211;53.452;-2.264;2023-12-07T13:17:42;8.20;35.90
6357;DHT22;3211;53.452;-2.264;2023-12-07T13:20:30;8.20;19.10
6357;DHT22;3211;53.452;-2.264;2023-12-07T13:23:18;8.20;7.00
6357;DHT22;3211;53.452;-2.264;2023-12-07T13:26:07;8.20;16.70
6357;DHT22;3211;53.452;-2.264;2023-12-07T13:28:54;8.20;13.00
6357;DHT22;3211;53.452;-2.264;2023-12-07T13:31:41;8.20;8.50
6357;DHT22;3211;53.452;-2.264;2023-12-07T13:34:29;8.20;16.00
6357;DHT22;3211;53.452;-2.264;2023-12-07T13:37:16;8.20;28.70
6357;DHT22;3211;53.452;-2.264;2023-12-07T13:40:06;8.20;19.30
6357;DHT22;3211;53.452;-2.264;2023-12-07T13:42:56;8.20;1.00
6357;DHT22;3211;53.452;-2.264;2023-12-07T13:45:43;8.20;1.00
6357;DHT22;3211;53.452;-2.264;2023-12-07T13:48:30;8.20;1.00
6357;DHT22;3211;53.452;-2.264;2023-12-07T13:51:17;8.20;1.00
6357;DHT22;3211;53.452;-2.264;2023-12-07T13:54:06;8.20;1.00
6357;DHT22;3211;53.452;-2.264;2023-12-07T13:56:55;8.30;1.00
6357;DHT22;3211;53.452;-2.264;2023-12-07T13:59:42;8.30;1.00
6357;DHT22;3211;53.452;-2.264;2023-12-07T14:02:29;8.30;1.00
6357;DHT22;3211;53.452;-2.264;2023-12-07T14:05:16;8.30;1.00
6357;DHT22;3211;53.452;-2.264;2023-12-07T14:08:04;8.30;1.00
6357;DHT22;3211;53.452;-2.264;2023-12-07T14:10:52;8.30;1.00
6357;DHT22;3211;53.452;-2.264;2023-12-07T14:13:40;8.30;1.00
6357;DHT22;3211;53.452;-2.264;2023-12-07T14:16:27;8.20;1.00
6357;DHT22;3211;53.452;-2.264;2023-12-07T14:19:15;8.20;1.00
6357;DHT22;3211;53.452;-2.264;2023-12-07T14:22:02;8.10;37.80
6357;DHT22;3211;53.452;-2.264;2023-12-07T14:24:49;8.10;99.90
6357;DHT22;3211;53.452;-2.264;2023-12-07T14:27:38;8.10;99.90
6357;DHT22;3211;53.452;-2.264;2023-12-07T14:30:26;8.00;99.90
6357;DHT22;3211;53.452;-2.264;2023-12-07T14:33:14;8.00;99.90
6357;DHT22;3211;53.452;-2.264;2023-12-07T14:36:01;8.00;99.90
6357;DHT22;3211;53.452;-2.264;2023-12-07T14:38:48;7.90;99.90
6357;DHT22;3211;53.452;-2.264;2023-12-07T14:41:35;7.90;99.90
6357;DHT22;3211;53.452;-2.264;2023-12-07T14:44:23;7.90;99.90
6357;DHT22;3211;53.452;-2.264;2023-12-07T14:47:11;7.80;99.90
6357;DHT22;3211;53.452;-2.264;2023-12-07T14:49:59;7.90;99.90
6357;DHT22;3211;53.452;-2.264;2023-12-07T14:52:46;7.90;99.90
6357;DHT22;3211;53.452;-2.264;2023-12-07T14:55:34;7.80;99.90
6357;DHT22;3211;53.452;-2.264;2023-12-07T14:58:21;7.90;99.90
6357;DHT22;3211;53.452;-2.264;2023-12-07T15:01:09;7.80;99.90
6357;DHT22;3211;53.452;-2.264;2023-12-07T15:03:57;7.80;99.90
6357;DHT22;3211;53.452;-2.264;2023-12-07T15:06:45;7.80;99.90
6357;DHT22;3211;53.452;-2.264;2023-12-07T15:09:33;7.80;99.90
6357;DHT22;3211;53.452;-2.264;2023-12-07T15:12:23;7.70;99.90
6357;DHT22;3211;53.452;-2.264;2023-12-07T15:15:11;7.70;99.90
6357;DHT22;3211;53.452;-2.264;2023-12-07T15:17:58;7.70;99.90
6357;DHT22;3211;53.452;-2.264;2023-12-07T15:20:47;7.60;99.90
6357;DHT22;3211;53.452;-2.264;2023-12-07T15:23:34;7.60;99.90
6357;DHT22;3211;53.452;-2.264;2023-12-07T15:26:21;7.60;99.90
6357;DHT22;3211;53.452;-2.264;2023-12-07T15:29:08;7.60;99.90
6357;DHT22;3211;53.452;-2.264;2023-12-07T15:31:55;7.60;99.90
6357;DHT22;3211;53.452;-2.264;2023-12-07T15:34:43;7.60;99.90
6357;DHT22;3211;53.452;-2.264;2023-12-07T15:37:31;7.70;99.90
6357;DHT22;3211;53.452;-2.264;2023-12-07T15:40:18;7.70;99.90
6357;DHT22;3211;53.452;-2.264;2023-12-07T15:43:06;7.70;99.90
6357;DHT22;3211;53.452;-2.264;2023-12-07T15:45:53;7.70;99.90
6357;DHT22;3211;53.452;-2.264;2023-12-07T15:48:40;7.70;99.90
6357;DHT22;3211;53.452;-2.264;2023-12-07T15:51:27;7.70;99.90
6357;DHT22;3211;53.452;-2.264;2023-12-07T15:54:16;7.60;99.90
6357;DHT22;3211;53.452;-2.264;2023-12-07T15:57:04;7.70;99.90
6357;DHT22;3211;53.452;-2.264;2023-12-07T15:59:51;7.60;99.90
6357;DHT22;3211;53.452;-2.264;2023-12-07T16:02:38;7.60;99.90
6357;DHT22;3211;53.452;-2.264;2023-12-07T16:05:26;7.60;99.90
6357;DHT22;3211;53.452;-2.264;2023-12-07T16:08:13;7.60;99.90
6357;DHT22;3211;53.452;-2.264;2023-12-07T16:11:02;7.50;99.90
6357;DHT22;3211;53.452;-2.264;2023-12-07T16:13:49;7.50;99.90
6357;DHT22;3211;53.452;-2.264;2023-12-07T16:16:36;7.40;99.90
6357;DHT22;3211;53.452;-2.264;2023-12-07T16:19:24;7.50;99.90
6357;DHT22;3211;53.452;-2.264;2023-12-07T16:22:11;7.40;99.90
6357;DHT22;3211;53.452;-2.264;2023-12-07T16:24:58;7.40;99.90
6357;DHT22;3211;53.452;-2.264;2023-12-07T16:27:49;7.40;99.90
6357;DHT22;3211;53.452;-2.264;2023-12-07T16:30:36;7.40;99.90
6357;DHT22;3211;53.452;-2.264;2023-12-07T16:33:24;7.40;99.90
6357;DHT22;3211;53.452;-2.264;2023-12-07T16:36:15;7.30;99.90
6357;DHT22;3211;53.452;-2.264;2023-12-07T16:39:02;7.30;99.90
6357;DHT22;3211;53.452;-2.264;2023-12-07T16:41:49;7.40;99.90
6357;DHT22;3211;53.452;-2.264;2023-12-07T16:44:38;7.30;99.90
6357;DHT22;3211;53.452;-2.264;2023-12-07T16:47:26;7.30;99.90
6357;DHT22;3211;53.452;-2.264;2023-12-07T16:50:14;7.30;99.90
6357;DHT22;3211;53.452;-2.264;2023-12-07T16:53:01;7.30;99.90
6357;DHT22;3211;53.452;-2.264;2023-12-07T16:55:48;7.30;99.90
6357;DHT22;3211;53.452;-2.264;2023-12-07T16:58:35;7.30;99.90
6357;DHT22;3211;53.452;-2.264;2023-12-07T17:01:24;7.30;99.90
6357;DHT22;3211;53.452;-2.264;2023-12-07T17:04:11;7.30;99.90
6357;DHT22;3211;53.452;-2.264;2023-12-07T17:06:59;7.30;99.90
6357;DHT22;3211;53.452;-2.264;2023-12-07T17:09:46;7.30;99.90
6357;DHT22;3211;53.452;-2.264;2023-12-07T17:12:33;7.30;99.90
6357;DHT22;3211;53.452;-2.264;2023-12-07T17:15:20;7.30;99.90
6357;DHT22;3211;53.452;-2.264;2023-12-07T17:18:09;7.30;99.90
6357;DHT22;3211;53.452;-2.264;2023-12-07T17:20:57;7.30;99.90
6357;DHT22;3211;53.452;-2.264;2023-12-07T17:23:44;7.40;99.90
6357;DHT22;3211;53.452;-2.264;2023-12-07T17:26:32;7.30;99.90
6357;DHT22;3211;53.452;-2.264;2023-12-07T17:29:19;7.40;99.90
6357;DHT22;3211;53.452;-2.264;2023-12-07T17:32:07;7.40;99.90
6357;DHT22;3211;53.452;-2.264;2023-12-07T17:34:56;7.50;99.90
6357;DHT22;3211;53.452;-2.264;2023-12-07T17:37:43;7.40;99.90
6357;DHT22;3211;53.452;-2.264;2023-12-07T17:40:31;7.50;99.90
6357;DHT22;3211;53.452;-2.264;2023-12-07T17:43:18;7.50;99.90
6357;DHT22;3211;53.452;-2.264;2023-12-07T17:46:05;7.40;99.90
6357;DHT22;3211;53.452;-2.264;2023-12-07T17:48:52;7.40;99.90
6357;DHT22;3211;53.452;-2.264;2023-12-07T17:51:42;7.40;99.90
6357;DHT22;3211;53.452;-2.264;2023-12-07T17:54:29;7.40;99.90
6357;DHT22;3211;53.452;-2.264;2023-12-07T17:57:16;7.50;99.90
6357;DHT22;3211;53.452;-2.264;2023-12-07T18:00:04;7.50;99.90
6357;DHT22;3211;53.452;-2.264;2023-12-07T18:02:52;7.40;99.90
6357;DHT22;3211;53.452;-2.264;2023-12-07T18:05:39;7.50;99.90
6357;DHT22;3211;53.452;-2.264;2023-12-07T18:08:28;7.50;99.90
6357;DHT22;3211;53.452;-2.264;2023-12-07T18:11:19;7.50;99.90
6357;DHT22;3211;53.452;-2.264;2023-12-07T18:14:07;7.50;99.90
6357;DHT22;3211;53.452;-2.264;2023-12-07T18:16:54;7.50;99.90
6357;DHT22;3211;53.452;-2.264;2023-12-07T18:19:41;7.50;99.90
6357;DHT22;3211;53.452;-2.264;2023-12-07T18:22:29;7.50;99.90